createdAt,value
2018-05-18T00:01:57.331Z,10.53
2018-05-18T00:04:24.908Z,10.67
2018-05-18T00:06:52.482Z,9.03
2018-05-18T00:09:20.047Z,9.63
2018-05-18T00:11:47.595Z,10.10
2018-05-18T00:14:15.166Z,9.00
2018-05-18T00:16:42.811Z,10.40
2018-05-18T00:19:10.430Z,10.30
2018-05-18T00:21:38.120Z,11.43
2018-05-18T00:24:05.673Z,10.70
2018-05-18T00:26:33.394Z,12.13
2018-05-18T00:29:01.711Z,11.80
2018-05-18T00:31:29.309Z,14.03
2018-05-18T00:33:56.880Z,15.10
2018-05-18T00:36:24.458Z,16.13
2018-05-18T00:38:52.903Z,15.40
2018-05-18T00:41:20.464Z,18.30
2018-05-18T00:43:48.019Z,19.10
2018-05-18T00:46:15.588Z,19.83
2018-05-18T00:48:43.180Z,15.83
2018-05-18T00:51:11.520Z,16.00
2018-05-18T00:53:39.076Z,12.43
2018-05-18T00:56:06.637Z,14.23
2018-05-18T00:58:34.179Z,13.73
2018-05-18T01:01:01.747Z,13.90
2018-05-18T01:03:29.297Z,15.47
2018-05-18T01:05:56.903Z,14.63
2018-05-18T01:08:25.213Z,10.73
2018-05-18T01:10:52.779Z,9.87
2018-05-18T01:13:20.328Z,9.47
2018-05-18T01:15:47.960Z,9.30
2018-05-18T01:18:15.457Z,8.57
2018-05-18T01:20:43.063Z,9.30
2018-05-18T01:23:10.636Z,9.20
2018-05-18T01:25:38.950Z,8.53
2018-05-18T01:28:06.534Z,10.03
2018-05-18T01:30:34.084Z,10.50
2018-05-18T01:33:01.644Z,10.57
2018-05-18T01:35:29.215Z,12.07
2018-05-18T01:37:56.792Z,10.63
2018-05-18T01:40:24.455Z,10.60
2018-05-18T01:42:52.177Z,13.63
2018-05-18T01:45:19.758Z,13.23
2018-05-18T01:47:47.335Z,13.20
2018-05-18T01:50:14.908Z,13.83
2018-05-18T01:52:42.722Z,12.93
2018-05-18T01:55:10.289Z,11.00
2018-05-18T01:57:37.965Z,10.77
2018-05-18T02:00:05.668Z,12.40
2018-05-18T02:02:34.036Z,21.20
2018-05-18T02:05:01.693Z,26.83
2018-05-18T02:07:29.332Z,23.13
2018-05-18T02:09:56.912Z,24.87
2018-05-18T02:12:24.462Z,22.87
2018-05-18T02:14:52.032Z,19.23
2018-05-18T02:17:19.599Z,16.30
2018-05-18T02:19:47.175Z,15.03
2018-05-18T02:22:15.492Z,16.97
2018-05-18T02:24:43.080Z,15.53
2018-05-18T02:27:10.698Z,14.20
2018-05-18T02:29:38.272Z,15.37
2018-05-18T02:32:05.832Z,17.67
2018-05-18T02:34:33.575Z,17.00
2018-05-18T02:37:01.152Z,15.93
2018-05-18T02:39:28.692Z,15.57
2018-05-18T02:41:56.276Z,16.73
2018-05-18T02:44:23.840Z,15.20
2018-05-18T02:46:51.416Z,16.67
2018-05-18T02:49:18.980Z,14.67
2018-05-18T02:51:46.643Z,15.83
2018-05-18T02:54:14.264Z,13.13
2018-05-18T02:56:41.820Z,14.47
2018-05-18T02:59:09.378Z,13.77
2018-05-18T03:01:37.851Z,14.50
2018-05-18T03:04:05.403Z,15.27
2018-05-18T03:06:33.888Z,15.23
2018-05-18T03:09:02.305Z,27.83
2018-05-18T03:11:29.880Z,25.53
2018-05-18T03:13:57.435Z,20.07
2018-05-18T03:16:25.007Z,17.70
2018-05-18T03:18:52.576Z,15.40
2018-05-18T03:21:20.159Z,17.87
2018-05-18T03:23:47.715Z,17.63
2018-05-18T03:26:15.272Z,17.00
2018-05-18T03:28:42.827Z,20.07
2018-05-18T03:31:10.406Z,20.17
2018-05-18T03:33:37.953Z,25.53
2018-05-18T03:36:05.612Z,18.33
2018-05-18T03:38:33.425Z,18.00
2018-05-18T03:41:00.991Z,17.23
2018-05-18T03:43:28.560Z,16.17
2018-05-18T03:45:56.198Z,14.93
2018-05-18T03:48:23.776Z,15.80
2018-05-18T03:50:51.416Z,17.97
2018-05-18T03:53:19.090Z,16.27
2018-05-18T03:55:46.642Z,15.13
2018-05-18T03:58:14.215Z,16.77
2018-05-18T04:00:41.775Z,14.83
2018-05-18T04:03:21.276Z,13.97
2018-05-18T04:06:01.507Z,13.93
2018-05-18T04:08:51.603Z,13.30
2018-05-18T04:11:20.076Z,10.93
2018-05-18T04:13:48.416Z,10.70
2018-05-18T04:16:15.972Z,10.00
2018-05-18T04:18:43.600Z,9.67
2018-05-18T04:21:11.912Z,8.97
2018-05-18T04:23:39.483Z,9.73
2018-05-18T04:26:07.041Z,8.43
2018-05-18T04:28:34.592Z,9.70
2018-05-18T04:31:02.159Z,10.37
2018-05-18T04:33:29.821Z,11.77
2018-05-18T04:35:57.384Z,12.20
2018-05-18T04:38:25.009Z,12.47
2018-05-18T04:40:53.331Z,12.23
2018-05-18T04:43:20.933Z,10.50
2018-05-18T04:45:48.460Z,11.10
2018-05-18T04:48:16.021Z,10.50
2018-05-18T04:50:43.916Z,13.07
2018-05-18T04:53:11.415Z,13.13
2018-05-18T04:55:39.012Z,15.13
2018-05-18T04:58:06.597Z,13.97
2018-05-18T05:00:34.175Z,11.97
2018-05-18T05:03:02.547Z,10.50
2018-05-18T05:05:30.935Z,9.73
2018-05-18T05:07:58.487Z,11.50
2018-05-18T05:10:26.975Z,14.13
2018-05-18T05:12:55.315Z,16.70
2018-05-18T05:15:22.900Z,17.90
2018-05-18T05:17:51.259Z,14.13
2018-05-18T05:20:18.815Z,17.70
2018-05-18T05:22:46.411Z,21.00
2018-05-18T05:25:14.820Z,22.30
2018-05-18T05:27:42.368Z,20.73
2018-05-18T05:30:10.084Z,22.93
2018-05-18T05:32:37.709Z,22.87
2018-05-18T05:35:05.265Z,26.20
2018-05-18T05:37:33.344Z,36.80
2018-05-18T05:40:00.921Z,33.80
2018-05-18T05:42:28.517Z,27.40
2018-05-18T05:44:56.116Z,27.63
2018-05-18T05:47:23.687Z,27.77
2018-05-18T05:49:51.248Z,30.37
2018-05-18T05:52:18.816Z,31.37
2018-05-18T05:54:46.400Z,30.77
2018-05-18T05:57:13.985Z,32.50
2018-05-18T05:59:42.331Z,32.53
2018-05-18T06:02:09.888Z,31.80
2018-05-18T06:04:37.460Z,30.87
2018-05-18T06:07:05.015Z,28.03
2018-05-18T06:09:32.597Z,30.97
2018-05-18T06:12:01.137Z,31.13
2018-05-18T06:14:28.708Z,23.70
2018-05-18T06:16:56.338Z,25.47
2018-05-18T06:19:23.924Z,23.83
2018-05-18T06:21:51.527Z,24.27
2018-05-18T06:24:19.886Z,26.10
2018-05-18T06:26:47.440Z,27.13
2018-05-18T06:29:15.129Z,26.73
2018-05-18T06:31:43.448Z,25.20
2018-05-18T06:34:11.017Z,24.10
2018-05-18T06:36:38.596Z,25.60
2018-05-18T06:39:06.217Z,24.10
2018-05-18T06:41:33.759Z,22.03
2018-05-18T06:44:01.312Z,20.53
2018-05-18T06:46:29.727Z,20.93
2018-05-18T06:48:57.308Z,24.37
2018-05-18T06:51:24.883Z,16.10
2018-05-18T06:53:52.432Z,13.90
2018-05-18T06:56:20.059Z,12.23
2018-05-18T06:58:47.670Z,11.67
2018-05-18T07:01:15.189Z,10.40
2018-05-18T07:03:42.751Z,9.87
2018-05-18T07:06:10.440Z,9.10
2018-05-18T07:08:37.984Z,9.27
2018-05-18T07:11:05.536Z,9.50
2018-05-18T07:13:33.112Z,9.30
2018-05-18T07:16:00.666Z,9.30
2018-05-18T07:18:28.253Z,10.47
2018-05-18T07:20:56.579Z,17.17
2018-05-18T07:23:24.151Z,26.10
2018-05-18T07:25:51.740Z,23.50
2018-05-18T07:28:19.309Z,18.53
2018-05-18T07:30:46.878Z,29.97
2018-05-18T07:33:14.439Z,29.77
2018-05-18T07:35:42.770Z,29.60
2018-05-18T07:38:10.344Z,33.17
2018-05-18T07:40:37.902Z,33.00
2018-05-18T07:43:05.493Z,34.00
2018-05-18T07:45:33.050Z,33.53
2018-05-18T07:48:00.669Z,34.70
2018-05-18T07:50:28.223Z,31.47
2018-05-18T07:52:55.815Z,33.93
2018-05-18T07:55:23.494Z,31.93
2018-05-18T07:57:51.095Z,33.57
2018-05-18T08:00:18.643Z,31.83
2018-05-18T08:02:46.249Z,31.40
2018-05-18T08:05:13.815Z,29.53
2018-05-18T08:07:41.546Z,32.13
2018-05-18T08:10:09.128Z,28.20
2018-05-18T08:12:36.730Z,28.07
2018-05-18T08:15:04.416Z,31.40
2018-05-18T08:17:31.902Z,27.57
2018-05-18T08:19:59.467Z,30.23
2018-05-18T08:22:27.031Z,27.00
2018-05-18T08:24:54.629Z,24.00
2018-05-18T08:27:24.017Z,27.73
2018-05-18T08:29:51.599Z,25.67
2018-05-18T08:32:19.917Z,22.60
2018-05-18T08:34:47.495Z,22.67
2018-05-18T08:37:15.041Z,24.33
2018-05-18T08:39:42.816Z,23.73
2018-05-18T08:42:10.492Z,23.33
2018-05-18T08:44:38.084Z,24.07
2018-05-18T08:47:06.462Z,23.10
2018-05-18T08:49:34.804Z,29.40
2018-05-18T08:52:02.392Z,22.30
2018-05-18T08:54:29.951Z,23.40
2018-05-18T08:56:57.512Z,23.47
2018-05-18T08:59:25.155Z,23.87
2018-05-18T09:01:52.820Z,23.93
2018-05-18T09:04:20.407Z,22.63
2018-05-18T09:06:48.815Z,23.93
2018-05-18T09:09:16.385Z,20.60
2018-05-18T09:11:44.081Z,18.93
2018-05-18T09:14:11.704Z,17.87
2018-05-18T09:16:39.304Z,17.63
2018-05-18T09:19:06.864Z,17.40
2018-05-18T09:21:34.432Z,15.87
2018-05-18T09:24:02.032Z,14.30
2018-05-18T09:26:29.611Z,17.40
2018-05-18T09:28:57.155Z,13.13
2018-05-18T09:31:24.759Z,13.47
2018-05-18T09:33:52.449Z,12.97
2018-05-18T09:36:20.703Z,12.50
2018-05-18T09:38:48.281Z,13.40
2018-05-18T09:41:15.875Z,13.40
2018-05-18T09:43:43.466Z,13.73
2018-05-18T09:46:11.011Z,16.83
2018-05-18T09:48:38.587Z,16.40
2018-05-18T09:51:06.313Z,18.80
2018-05-18T09:53:33.908Z,14.60
2018-05-18T09:56:01.784Z,12.47
2018-05-18T09:58:29.348Z,11.50
2018-05-18T10:00:56.975Z,14.07
2018-05-18T10:03:24.684Z,13.80
2018-05-18T10:05:53.016Z,13.20
2018-05-18T10:08:20.595Z,11.67
2018-05-18T10:10:48.160Z,11.40
2018-05-18T10:13:15.751Z,10.80
2018-05-18T10:15:43.352Z,11.67
2018-05-18T10:18:10.967Z,9.33
2018-05-18T10:20:38.576Z,10.90
2018-05-18T10:23:06.151Z,11.03
2018-05-18T10:25:33.747Z,11.07
2018-05-18T10:28:01.312Z,9.47
2018-05-18T10:30:29.848Z,11.03
2018-05-18T10:32:57.408Z,10.33
2018-05-18T10:35:24.989Z,10.13
2018-05-18T10:37:52.592Z,10.80
2018-05-18T10:40:20.921Z,11.80
2018-05-18T10:42:48.574Z,11.40
2018-05-18T10:45:16.199Z,11.17
2018-05-18T10:47:43.716Z,10.73
2018-05-18T10:50:11.300Z,9.50
2018-05-18T10:52:38.855Z,9.00
2018-05-18T10:55:06.434Z,9.33
2018-05-18T10:57:34.768Z,9.67
2018-05-18T11:00:02.331Z,9.17
2018-05-18T11:02:29.891Z,9.20
2018-05-18T11:04:57.443Z,7.93
2018-05-18T11:07:25.017Z,8.73
2018-05-18T11:09:52.591Z,9.70
2018-05-18T11:12:20.172Z,8.63
2018-05-18T11:14:48.499Z,7.90
2018-05-18T11:17:16.089Z,7.70
2018-05-18T11:19:43.658Z,7.00
2018-05-18T11:22:11.227Z,7.47
2018-05-18T11:24:39.564Z,12.80
2018-05-18T11:27:07.220Z,7.00
2018-05-18T11:29:34.696Z,7.70
2018-05-18T11:32:02.320Z,6.83
2018-05-18T11:34:29.928Z,6.60
2018-05-18T11:36:57.520Z,6.77
2018-05-18T11:39:25.858Z,6.63
2018-05-18T11:41:53.403Z,5.90
2018-05-18T11:44:20.976Z,6.43
2018-05-18T11:46:48.547Z,7.23
2018-05-18T11:49:16.305Z,7.40
2018-05-18T11:51:43.831Z,6.87
2018-05-18T11:54:11.412Z,6.00
2018-05-18T11:56:38.961Z,6.70
2018-05-18T11:59:06.533Z,6.10
2018-05-18T12:01:34.083Z,6.43
2018-05-18T12:04:01.667Z,6.97
2018-05-18T12:06:29.415Z,6.13
2018-05-18T12:08:57.050Z,6.30
2018-05-18T12:11:24.603Z,6.57
2018-05-18T12:13:52.177Z,6.53
2018-05-18T12:16:19.800Z,6.07
2018-05-18T12:18:48.432Z,6.00
2018-05-18T12:21:16.002Z,6.10
2018-05-18T12:23:43.559Z,6.43
2018-05-18T12:26:11.131Z,6.13
2018-05-18T12:28:38.824Z,6.23
2018-05-18T12:31:07.156Z,5.60
2018-05-18T12:33:34.719Z,6.10
2018-05-18T12:36:02.289Z,5.53
2018-05-18T12:38:29.930Z,6.77
2018-05-18T12:40:57.514Z,5.67
2018-05-18T12:43:25.074Z,6.27
2018-05-18T12:45:52.660Z,5.77
2018-05-18T12:48:20.367Z,6.00
2018-05-18T12:50:48.047Z,5.60
2018-05-18T12:53:15.613Z,6.23
2018-05-18T12:55:43.209Z,6.07
2018-05-18T12:58:10.803Z,5.67
2018-05-18T13:00:38.688Z,6.40
2018-05-18T13:03:06.595Z,6.60
2018-05-18T13:05:34.188Z,6.23
2018-05-18T13:08:02.576Z,6.23
2018-05-18T13:10:30.098Z,5.73
2018-05-18T13:12:57.823Z,6.20
2018-05-18T13:15:25.412Z,6.40
2018-05-18T13:17:52.999Z,6.10
2018-05-18T13:20:21.337Z,5.97
2018-05-18T13:22:48.935Z,6.30
2018-05-18T13:25:17.260Z,6.43
2018-05-18T13:27:44.844Z,6.30
2018-05-18T13:30:12.424Z,6.10
2018-05-18T13:32:40.130Z,5.60
2018-05-18T13:35:07.700Z,6.10
2018-05-18T13:37:35.286Z,6.50
2018-05-18T13:40:02.859Z,6.50
2018-05-18T13:42:30.447Z,6.73
2018-05-18T13:44:58.792Z,6.07
2018-05-18T13:47:26.367Z,6.50
2018-05-18T13:49:53.923Z,5.80
2018-05-18T13:52:21.491Z,6.43
2018-05-18T13:54:49.976Z,5.97
2018-05-18T13:57:18.443Z,5.60
2018-05-18T13:59:45.919Z,6.37
2018-05-18T14:02:14.238Z,5.70
2018-05-18T14:04:41.804Z,5.80
2018-05-18T14:07:09.668Z,5.60
2018-05-18T14:09:37.330Z,5.27
2018-05-18T14:12:04.900Z,5.90
2018-05-18T14:14:32.520Z,5.90
2018-05-18T14:17:00.107Z,6.10
2018-05-18T14:19:27.652Z,6.50
2018-05-18T14:21:55.227Z,6.67
2018-05-18T14:24:22.799Z,5.80
2018-05-18T14:26:50.379Z,5.23
2018-05-18T14:29:18.014Z,4.90
2018-05-18T14:31:45.603Z,5.40
2018-05-18T14:34:13.181Z,5.37
2018-05-18T14:36:41.601Z,5.43
2018-05-18T14:39:09.179Z,5.97
2018-05-18T14:41:36.828Z,6.03
2018-05-18T14:44:04.392Z,6.27
2018-05-18T14:46:32.090Z,5.57
2018-05-18T14:48:59.708Z,6.13
2018-05-18T14:51:27.302Z,6.20
2018-05-18T14:53:55.756Z,5.50
2018-05-18T14:56:23.411Z,6.57
2018-05-18T14:58:50.960Z,5.70
2018-05-18T15:01:18.572Z,6.00
2018-05-18T15:03:46.142Z,5.13
2018-05-18T15:06:14.479Z,5.30
2018-05-18T15:08:42.052Z,5.17
2018-05-18T15:11:09.616Z,5.40
2018-05-18T15:13:37.206Z,5.30
2018-05-18T15:16:04.770Z,5.77
2018-05-18T15:18:32.342Z,5.90
2018-05-18T15:21:00.658Z,5.23
2018-05-18T15:23:28.246Z,5.70
2018-05-18T15:25:55.870Z,5.60
2018-05-18T15:28:23.428Z,5.37
2018-05-18T15:30:50.981Z,4.90
2018-05-18T15:33:18.701Z,5.30
2018-05-18T15:35:46.257Z,5.50
2018-05-18T15:38:13.918Z,5.20
2018-05-18T15:40:41.484Z,5.30
2018-05-18T15:43:09.096Z,5.93
2018-05-18T15:45:36.808Z,5.20
2018-05-18T15:48:04.372Z,5.87
2018-05-18T15:50:31.973Z,6.73
2018-05-18T15:52:59.587Z,6.17
2018-05-18T15:55:27.169Z,6.27
2018-05-18T15:57:55.504Z,6.30
2018-05-18T16:00:23.094Z,6.70
2018-05-18T16:02:50.656Z,6.53
2018-05-18T16:05:18.231Z,6.07
2018-05-18T16:07:46.572Z,6.40
2018-05-18T16:10:14.157Z,6.43
2018-05-18T16:12:41.712Z,6.47
2018-05-18T16:15:10.026Z,6.83
2018-05-18T16:17:37.592Z,6.40
2018-05-18T16:20:05.165Z,6.90
2018-05-18T16:22:32.750Z,5.97
2018-05-18T16:25:00.292Z,6.37
2018-05-18T16:27:27.851Z,6.80
2018-05-18T16:29:55.508Z,6.30
2018-05-18T16:32:23.096Z,6.27
2018-05-18T16:34:50.651Z,5.90
2018-05-18T16:37:18.367Z,6.47
2018-05-18T16:39:45.915Z,6.10
2018-05-18T16:42:14.283Z,6.57
2018-05-18T16:44:42.652Z,6.23
2018-05-18T16:47:11.715Z,6.23
2018-05-18T16:49:39.307Z,6.20
2018-05-18T16:52:07.041Z,5.70
2018-05-18T16:54:34.588Z,6.07
2018-05-18T16:57:02.165Z,6.23
2018-05-18T16:59:29.802Z,5.87
2018-05-18T17:01:57.364Z,5.83
2018-05-18T17:04:25.040Z,5.80
2018-05-18T17:06:52.692Z,6.67
2018-05-18T17:09:20.372Z,7.97
2018-05-18T17:11:47.941Z,5.83
2018-05-18T17:14:15.660Z,6.10
2018-05-18T17:16:43.216Z,6.60
2018-05-18T17:19:11.555Z,5.93
2018-05-18T17:21:39.128Z,6.47
2018-05-18T17:24:06.729Z,5.70
2018-05-18T17:26:34.348Z,6.63
2018-05-18T17:29:01.936Z,6.57
2018-05-18T17:31:29.510Z,7.00
2018-05-18T17:33:57.076Z,6.07
2018-05-18T17:36:24.636Z,5.90
2018-05-18T17:38:52.172Z,6.07
2018-05-18T17:41:20.624Z,6.17
2018-05-18T17:43:48.183Z,5.17
2018-05-18T17:46:15.740Z,6.13
2018-05-18T17:48:43.568Z,5.53
2018-05-18T17:51:11.164Z,7.23
2018-05-18T17:53:38.800Z,6.90
2018-05-18T17:56:07.140Z,5.90
2018-05-18T17:58:35.509Z,8.37
2018-05-18T18:01:03.895Z,5.80
2018-05-18T18:03:32.265Z,5.33
2018-05-18T18:05:59.795Z,5.57
2018-05-18T18:08:27.387Z,5.60
2018-05-18T18:10:55.771Z,5.07
2018-05-18T18:13:24.086Z,6.07
2018-05-18T18:15:51.837Z,6.10
2018-05-18T18:18:19.398Z,6.00
2018-05-18T18:20:46.976Z,5.67
2018-05-18T18:23:14.548Z,5.33
2018-05-18T18:25:42.103Z,5.90
2018-05-18T18:28:09.764Z,5.73
2018-05-18T18:30:37.345Z,6.47
2018-05-18T18:33:04.914Z,8.27
2018-05-18T18:35:32.466Z,7.00
2018-05-18T18:38:00.017Z,6.97
2018-05-18T18:40:27.591Z,6.57
2018-05-18T18:42:55.144Z,8.17
2018-05-18T18:45:22.744Z,8.63
2018-05-18T18:47:50.430Z,10.87
2018-05-18T18:50:18.121Z,12.47
2018-05-18T18:52:45.689Z,11.13
2018-05-18T18:55:13.262Z,9.60
2018-05-18T18:57:40.880Z,9.73
2018-05-18T19:00:08.528Z,9.00
2018-05-18T19:02:36.095Z,11.27
2018-05-18T19:05:03.739Z,13.53
2018-05-18T19:07:32.126Z,13.97
2018-05-18T19:09:59.683Z,16.20
2018-05-18T19:12:27.268Z,15.93
2018-05-18T19:14:54.827Z,13.40
2018-05-18T19:17:22.411Z,10.93
2018-05-18T19:19:49.961Z,8.47
2018-05-18T19:22:17.540Z,8.97
2018-05-18T19:24:45.063Z,8.30
2018-05-18T19:27:12.619Z,10.27
2018-05-18T19:29:40.274Z,8.23
2018-05-18T19:32:07.755Z,7.67
2018-05-18T19:34:35.316Z,8.13
2018-05-18T19:37:02.955Z,9.30
2018-05-18T19:39:30.517Z,9.97
2018-05-18T19:41:58.174Z,8.93
2018-05-18T19:44:26.543Z,10.13
2018-05-18T19:46:54.109Z,8.47
2018-05-18T19:49:21.712Z,7.50
2018-05-18T19:51:49.281Z,10.40
2018-05-18T19:54:16.877Z,10.23
2018-05-18T19:56:45.235Z,10.37
2018-05-18T19:59:12.803Z,14.37
2018-05-18T20:01:41.165Z,14.03
2018-05-18T20:04:08.755Z,15.80
2018-05-18T20:06:36.337Z,22.93
2018-05-18T20:09:03.904Z,20.70
2018-05-18T20:11:31.657Z,25.67
2018-05-18T20:13:59.243Z,21.13
2018-05-18T20:16:26.920Z,22.60
2018-05-18T20:18:54.756Z,21.63
2018-05-18T20:21:22.461Z,15.87
2018-05-18T20:23:50.043Z,8.13
2018-05-18T20:26:18.396Z,7.20
2018-05-18T20:28:45.952Z,7.07
2018-05-18T20:31:13.524Z,8.13
2018-05-18T20:33:41.875Z,8.83
2018-05-18T20:36:09.492Z,10.50
2018-05-18T20:38:37.056Z,10.47
2018-05-18T20:41:04.642Z,10.57
2018-05-18T20:43:32.213Z,11.60
2018-05-18T20:45:59.860Z,10.80
2018-05-18T20:48:27.436Z,11.07
2018-05-18T20:50:55.019Z,9.87
2018-05-18T20:53:22.649Z,8.30
2018-05-18T20:55:50.336Z,7.90
2018-05-18T20:58:18.739Z,6.70
2018-05-18T21:00:46.365Z,6.60
2018-05-18T21:03:13.924Z,7.13
2018-05-18T21:05:41.516Z,7.20
2018-05-18T21:08:09.108Z,7.20
2018-05-18T21:10:36.880Z,6.70
2018-05-18T21:13:04.561Z,6.70
2018-05-18T21:15:32.112Z,6.20
2018-05-18T21:17:59.716Z,5.87
2018-05-18T21:20:27.280Z,6.13
2018-05-18T21:22:54.888Z,6.43
2018-05-18T21:25:22.559Z,5.67
2018-05-18T21:27:50.139Z,5.97
2018-05-18T21:30:17.691Z,6.00
2018-05-18T21:32:45.275Z,6.60
2018-05-18T21:35:12.845Z,6.80
2018-05-18T21:37:40.412Z,6.40
2018-05-18T21:40:08.740Z,6.63
2018-05-18T21:42:36.357Z,6.67
2018-05-18T21:45:04.824Z,6.83
2018-05-18T21:47:32.676Z,6.67
2018-05-18T21:50:00.327Z,6.90
2018-05-18T21:52:27.909Z,7.13
2018-05-18T21:54:55.486Z,6.40
2018-05-18T21:57:23.799Z,5.77
2018-05-18T21:59:51.403Z,6.13
2018-05-18T22:02:18.956Z,8.27
2018-05-18T22:04:46.564Z,7.43
2018-05-18T22:07:14.137Z,7.93
2018-05-18T22:09:41.735Z,8.30
2018-05-18T22:12:09.288Z,8.40
2018-05-18T22:14:36.884Z,8.13
2018-05-18T22:17:04.533Z,8.17
2018-05-18T22:19:32.140Z,9.20
2018-05-18T22:21:59.717Z,8.53
2018-05-18T22:24:27.272Z,8.97
2018-05-18T22:26:55.037Z,7.60
2018-05-18T22:29:22.604Z,7.67
2018-05-18T22:31:50.290Z,6.73
2018-05-18T22:34:18.021Z,6.80
2018-05-18T22:36:45.600Z,7.63
2018-05-18T22:39:13.179Z,8.23
2018-05-18T22:41:40.756Z,8.23
2018-05-18T22:44:08.325Z,8.40
2018-05-18T22:46:36.666Z,7.17
2018-05-18T22:49:04.256Z,8.63
2018-05-18T22:51:32.623Z,8.00
2018-05-18T22:54:01.015Z,8.90
2018-05-18T22:56:28.577Z,9.20
2018-05-18T22:58:56.895Z,8.50
2018-05-18T23:01:24.485Z,7.27
2018-05-18T23:03:52.096Z,6.33
2018-05-18T23:06:19.676Z,6.57
2018-05-18T23:08:47.334Z,6.60
2018-05-18T23:11:14.901Z,5.87
2018-05-18T23:13:42.491Z,6.93
2018-05-18T23:16:10.055Z,7.30
2018-05-18T23:18:37.636Z,7.50
2018-05-18T23:21:05.186Z,8.10
2018-05-18T23:23:32.756Z,7.57
2018-05-18T23:26:01.100Z,8.97
2018-05-18T23:28:28.680Z,8.40
2018-05-18T23:30:56.247Z,8.10
2018-05-18T23:33:23.816Z,6.90
2018-05-18T23:35:52.393Z,6.90
2018-05-18T23:38:19.959Z,6.50
2018-05-18T23:40:48.292Z,6.57
2018-05-18T23:43:15.868Z,6.20
2018-05-18T23:45:43.433Z,7.37
2018-05-18T23:48:11.063Z,7.13
2018-05-18T23:50:38.783Z,7.70
2018-05-18T23:53:07.139Z,6.80
2018-05-18T23:55:34.705Z,7.00
2018-05-18T23:58:02.264Z,6.70
